Time;durP1;ratioP1;P1;durP2;ratioP2;P2;SDS_P1;SDS_P2;PMS_P1;PMS_P2;Temp;Humidity;BMP_temperature;BMP_pressure;BME280_temperature;BME280_humidity;BME280_pressure;Samples;Min_cycle;Max_cycle;Signal;HPM_P1;HPM_P2
2024/01/09 00:01:56;;;;;;;;;;;18.90;43.30;;;;;;5090435;28;19920;-57
2024/01/09 00:04:23;;;;;;;;;;;18.90;42.80;;;;;;5088360;28;19932;-57
2024/01/09 00:06:49;;;;;;;;;;;18.90;42.80;;;;;;5090820;28;20522;-57
2024/01/09 00:09:18;;;;;;;;;;;18.90;42.80;;;;;;5081413;28;20432;-57
2024/01/09 00:11:44;;;;;;;;;;;18.90;42.80;;;;;;5081142;28;19921;-57
2024/01/09 00:14:11;;;;;;;;;;;18.90;42.80;;;;;;5090955;28;19920;-56
2024/01/09 00:16:38;;;;;;;;;;;18.90;42.80;;;;;;5078482;28;19952;-57
2024/01/09 00:19:05;;;;;;;;;;;18.90;42.90;;;;;;5083146;28;19953;-55
2024/01/09 00:21:31;;;;;;;;;;;18.90;42.90;;;;;;5077548;28;19928;-57
2024/01/09 00:23:58;;;;;;;;;;;18.90;42.90;;;;;;5090008;28;20223;-57
2024/01/09 00:26:26;;;;;;;;;;;18.90;42.90;;;;;;5081331;28;19927;-57
2024/01/09 00:28:53;;;;;;;;;;;18.90;42.90;;;;;;5078287;28;19939;-57
2024/01/09 00:31:20;;;;;;;;;;;18.90;42.90;;;;;;5076841;28;20373;-57
2024/01/09 00:33:47;;;;;;;;;;;18.90;42.90;;;;;;5076942;28;19927;-57
2024/01/09 00:36:13;;;;;;;;;;;18.90;42.90;;;;;;5075164;28;19920;-57
2024/01/09 00:38:40;;;;;;;;;;;18.90;43.00;;;;;;5090834;28;19993;-57
2024/01/09 00:41:07;;;;;;;;;;;18.90;43.00;;;;;;5088155;28;19920;-57
2024/01/09 00:43:35;;;;;;;;;;;18.90;43.00;;;;;;5088556;28;20321;-57
2024/01/09 00:46:02;;;;;;;;;;;18.90;43.10;;;;;;5077805;28;19924;-56
2024/01/09 00:48:28;;;;;;;;;;;18.90;43.10;;;;;;5079261;28;19920;-57
2024/01/09 00:50:55;;;;;;;;;;;18.90;43.10;;;;;;5081013;28;19928;-57
2024/01/09 00:53:22;;;;;;;;;;;18.90;43.20;;;;;;5075040;28;19920;-57
2024/01/09 00:55:48;;;;;;;;;;;18.90;43.20;;;;;;5082286;28;19920;-56
2024/01/09 00:58:15;;;;;;;;;;;18.90;43.20;;;;;;5078135;28;19949;-56
2024/01/09 01:00:43;;;;;;;;;;;18.90;43.20;;;;;;5076769;28;19931;-57
2024/01/09 01:03:10;;;;;;;;;;;18.90;43.30;;;;;;5075206;28;19924;-55
2024/01/09 01:05:37;;;;;;;;;;;18.90;43.30;;;;;;5078767;28;19920;-57
2024/01/09 01:08:03;;;;;;;;;;;18.90;43.30;;;;;;5069686;28;19928;-57
2024/01/09 01:10:30;;;;;;;;;;;18.90;43.30;;;;;;5069149;28;19924;-56
2024/01/09 01:12:57;;;;;;;;;;;18.90;43.30;;;;;;5076302;28;19966;-57
2024/01/09 01:15:24;;;;;;;;;;;18.90;43.40;;;;;;5067494;28;19920;-57
2024/01/09 01:17:52;;;;;;;;;;;18.90;43.40;;;;;;5072810;28;19963;-57
2024/01/09 01:20:18;;;;;;;;;;;19.00;43.50;;;;;;5077899;28;19924;-57
2024/01/09 01:22:45;;;;;;;;;;;18.90;43.40;;;;;;5074922;28;19995;-57
2024/01/09 01:25:12;;;;;;;;;;;18.90;43.50;;;;;;5077912;28;19927;-57
2024/01/09 01:27:38;;;;;;;;;;;19.00;43.50;;;;;;5093905;28;20411;-57
2024/01/09 01:30:06;;;;;;;;;;;18.90;43.50;;;;;;5081353;28;19946;-57
2024/01/09 01:32:33;;;;;;;;;;;18.90;43.50;;;;;;5094614;28;19932;-57
2024/01/09 01:35:01;;;;;;;;;;;18.90;43.40;;;;;;5094450;28;19924;-57
2024/01/09 01:37:27;;;;;;;;;;;18.90;43.50;;;;;;5075617;28;19923;-57
2024/01/09 01:39:54;;;;;;;;;;;18.90;43.40;;;;;;5076295;28;19920;-55
2024/01/09 01:42:21;;;;;;;;;;;18.90;43.40;;;;;;5073710;28;19932;-57
2024/01/09 01:44:48;;;;;;;;;;;18.90;43.40;;;;;;5079357;28;19920;-57
2024/01/09 01:47:14;;;;;;;;;;;18.90;43.40;;;;;;5082725;28;19931;-57
2024/01/09 01:49:41;;;;;;;;;;;18.90;43.40;;;;;;5072416;28;19928;-57
2024/01/09 01:52:09;;;;;;;;;;;18.90;43.40;;;;;;5075566;28;19924;-57
2024/01/09 01:54:36;;;;;;;;;;;18.90;43.30;;;;;;5080916;28;19924;-57
2024/01/09 01:57:03;;;;;;;;;;;18.90;43.30;;;;;;5067018;28;19920;-57
2024/01/09 01:59:30;;;;;;;;;;;18.90;43.30;;;;;;5092695;28;19931;-57
2024/01/09 02:01:57;;;;;;;;;;;18.90;43.30;;;;;;5084049;28;19965;-57
2024/01/09 02:04:24;;;;;;;;;;;18.90;43.30;;;;;;5075646;28;19932;-57
2024/01/09 02:06:50;;;;;;;;;;;18.90;43.30;;;;;;5074644;28;19969;-56
2024/01/09 02:09:18;;;;;;;;;;;18.90;43.30;;;;;;5091361;28;20365;-57
2024/01/09 02:11:46;;;;;;;;;;;18.90;43.30;;;;;;5092210;28;20377;-57
2024/01/09 02:14:13;;;;;;;;;;;18.90;43.30;;;;;;5081750;28;19928;-57
2024/01/09 02:16:40;;;;;;;;;;;18.90;43.30;;;;;;5078640;28;19973;-56
2024/01/09 02:19:06;;;;;;;;;;;18.90;43.30;;;;;;5077142;28;19920;-56
2024/01/09 02:21:33;;;;;;;;;;;18.90;43.30;;;;;;5094378;28;19977;-56
2024/01/09 02:24:00;;;;;;;;;;;18.90;43.30;;;;;;5094037;28;19920;-56
2024/01/09 02:26:30;;;;;;;;;;;18.90;43.30;;;;;;5085714;28;19924;-56
2024/01/09 02:28:57;;;;;;;;;;;18.90;43.30;;;;;;5064142;28;19981;-55
2024/01/09 02:31:25;;;;;;;;;;;18.90;43.40;;;;;;5078218;28;19942;-56
2024/01/09 02:33:52;;;;;;;;;;;18.90;43.40;;;;;;5085159;28;19985;-56
2024/01/09 02:36:19;;;;;;;;;;;18.90;43.40;;;;;;5094958;28;19920;-56
2024/01/09 02:38:45;;;;;;;;;;;18.90;43.40;;;;;;5094774;28;19924;-56
2024/01/09 02:41:12;;;;;;;;;;;18.90;43.50;;;;;;5075610;28;19927;-56
2024/01/09 02:43:39;;;;;;;;;;;18.90;43.50;;;;;;5092933;28;19989;-56
2024/01/09 02:46:05;;;;;;;;;;;18.90;43.50;;;;;;5078427;28;19920;-56
2024/01/09 02:48:34;;;;;;;;;;;18.90;43.50;;;;;;5080571;28;19928;-56
2024/01/09 02:51:00;;;;;;;;;;;18.90;43.50;;;;;;5075724;28;19927;-56
2024/01/09 02:53:27;;;;;;;;;;;18.90;43.50;;;;;;5093807;28;19920;-56
2024/01/09 02:55:54;;;;;;;;;;;18.90;43.60;;;;;;5085434;28;19966;-58
2024/01/09 02:58:21;;;;;;;;;;;18.90;43.60;;;;;;5084947;28;19980;-57
2024/01/09 03:00:47;;;;;;;;;;;18.90;43.60;;;;;;5093127;28;19920;-56
2024/01/09 03:03:14;;;;;;;;;;;18.90;43.60;;;;;;5093365;28;19981;-54
2024/01/09 03:05:42;;;;;;;;;;;18.90;43.60;;;;;;5080661;28;19943;-56
2024/01/09 03:08:09;;;;;;;;;;;18.90;44.20;;;;;;5092584;28;19920;-56
2024/01/09 03:10:36;;;;;;;;;;;18.90;43.70;;;;;;5074620;28;19949;-55
2024/01/09 03:13:02;;;;;;;;;;;18.90;43.70;;;;;;5098795;28;19931;-56
2024/01/09 03:15:30;;;;;;;;;;;19.00;43.80;;;;;;5075526;28;19985;-57
2024/01/09 03:17:57;;;;;;;;;;;19.00;43.80;;;;;;5075363;28;19920;-56
2024/01/09 03:20:24;;;;;;;;;;;18.90;43.70;;;;;;5092663;28;19972;-56
2024/01/09 03:22:52;;;;;;;;;;;18.90;43.70;;;;;;5065835;28;19920;-56
2024/01/09 03:25:18;;;;;;;;;;;19.00;43.80;;;;;;5074426;28;19920;-56
2024/01/09 03:27:45;;;;;;;;;;;18.90;43.70;;;;;;5080133;28;20307;-56
2024/01/09 03:30:12;;;;;;;;;;;18.90;43.70;;;;;;5099047;28;19920;-57
2024/01/09 03:32:39;;;;;;;;;;;18.90;43.70;;;;;;5080811;28;19924;-56
2024/01/09 03:35:05;;;;;;;;;;;18.90;43.70;;;;;;5092549;28;19974;-56
2024/01/09 03:37:32;;;;;;;;;;;18.90;43.60;;;;;;5074649;28;19930;-56
2024/01/09 03:40:00;;;;;;;;;;;18.90;43.60;;;;;;5092627;28;20410;-57
2024/01/09 03:42:27;;;;;;;;;;;18.90;43.60;;;;;;5113630;28;19923;-57
2024/01/09 03:44:54;;;;;;;;;;;18.90;43.60;;;;;;5092153;28;19949;-57
2024/01/09 03:47:20;;;;;;;;;;;18.90;43.60;;;;;;5075106;28;19927;-56
2024/01/09 03:49:47;;;;;;;;;;;18.90;43.50;;;;;;5077222;28;19920;-56
2024/01/09 03:52:14;;;;;;;;;;;18.90;43.50;;;;;;5066500;28;19924;-56
2024/01/09 03:54:41;;;;;;;;;;;18.90;43.50;;;;;;5077830;28;19920;-56
2024/01/09 03:57:10;;;;;;;;;;;18.90;43.50;;;;;;5074048;28;19927;-56
2024/01/09 03:59:37;;;;;;;;;;;18.90;43.50;;;;;;5085009;28;19932;-55
2024/01/09 04:02:04;;;;;;;;;;;18.90;43.50;;;;;;5083516;28;20093;-56
2024/01/09 04:04:31;;;;;;;;;;;18.90;43.50;;;;;;5093879;28;19935;-55
2024/01/09 04:06:58;;;;;;;;;;;18.90;43.50;;;;;;5089954;28;19920;-56
2024/01/09 04:09:25;;;;;;;;;;;18.90;43.50;;;;;;5077256;28;19920;-56
2024/01/09 04:11:52;;;;;;;;;;;18.90;43.50;;;;;;5081470;28;19927;-57
2024/01/09 04:14:20;;;;;;;;;;;18.90;43.50;;;;;;5069842;28;19959;-57
2024/01/09 04:16:47;;;;;;;;;;;18.90;43.50;;;;;;5071371;28;19971;-57
2024/01/09 04:19:14;;;;;;;;;;;18.90;43.50;;;;;;5091098;28;20006;-57
2024/01/09 04:21:40;;;;;;;;;;;18.90;43.50;;;;;;5073323;28;19924;-57
2024/01/09 04:24:07;;;;;;;;;;;18.90;43.50;;;;;;5077214;28;19920;-57
2024/01/09 04:26:34;;;;;;;;;;;18.90;43.50;;;;;;5080659;28;19932;-57
2024/01/09 04:29:00;;;;;;;;;;;18.90;43.50;;;;;;5073150;28;19935;-57
2024/01/09 04:31:29;;;;;;;;;;;18.90;44.20;;;;;;5089940;28;20028;-57
2024/01/09 04:33:55;;;;;;;;;;;18.90;43.60;;;;;;5077715;28;19920;-57
2024/01/09 04:36:22;;;;;;;;;;;18.90;43.60;;;;;;5095988;28;19923;-56
2024/01/09 04:38:49;;;;;;;;;;;18.90;43.60;;;;;;5071853;28;19920;-57
2024/01/09 04:41:16;;;;;;;;;;;18.90;43.70;;;;;;5084311;28;19920;-57
2024/01/09 04:43:44;;;;;;;;;;;18.90;43.70;;;;;;5096684;28;20019;-56
2024/01/09 04:46:10;;;;;;;;;;;18.90;43.70;;;;;;5081672;28;19920;-56
2024/01/09 04:48:38;;;;;;;;;;;18.90;43.70;;;;;;5072280;28;19920;-57
2024/01/09 04:51:06;;;;;;;;;;;18.90;43.70;;;;;;5073140;28;19943;-57
2024/01/09 04:53:32;;;;;;;;;;;18.90;43.80;;;;;;5084475;28;19927;-57
2024/01/09 04:55:59;;;;;;;;;;;18.90;43.80;;;;;;5067455;28;19920;-57
2024/01/09 04:58:26;;;;;;;;;;;18.90;43.80;;;;;;5093740;28;19961;-57
2024/01/09 05:00:53;;;;;;;;;;;18.90;43.80;;;;;;5096035;28;19920;-57
2024/01/09 05:03:19;;;;;;;;;;;18.90;43.90;;;;;;5096842;28;19972;-57
2024/01/09 05:05:47;;;;;;;;;;;18.90;43.90;;;;;;5086453;28;20177;-56
2024/01/09 05:08:14;;;;;;;;;;;18.90;43.90;;;;;;5094512;28;19924;-57
2024/01/09 05:10:41;;;;;;;;;;;18.90;44.10;;;;;;5087853;28;19977;-56
2024/01/09 05:13:09;;;;;;;;;;;18.90;43.90;;;;;;5094428;28;19920;-57
2024/01/09 05:15:35;;;;;;;;;;;18.90;43.90;;;;;;5076420;28;19920;-57
2024/01/09 05:18:02;;;;;;;;;;;18.90;43.90;;;;;;5080860;28;19920;-56
2024/01/09 05:20:29;;;;;;;;;;;18.90;44.00;;;;;;5094599;28;20186;-55
2024/01/09 05:22:57;;;;;;;;;;;18.90;43.90;;;;;;5083968;28;19923;-57
2024/01/09 05:25:24;;;;;;;;;;;18.90;44.00;;;;;;5094191;28;19920;-57
2024/01/09 05:27:50;;;;;;;;;;;18.90;43.90;;;;;;5096752;28;19923;-57
2024/01/09 05:30:17;;;;;;;;;;;18.90;43.90;;;;;;5069626;28;19950;-57
2024/01/09 05:32:44;;;;;;;;;;;18.90;43.90;;;;;;5092059;28;19924;-57
2024/01/09 05:35:11;;;;;;;;;;;18.90;43.90;;;;;;5075943;28;19973;-55
2024/01/09 05:37:37;;;;;;;;;;;18.90;43.80;;;;;;5074517;28;19920;-57
2024/01/09 05:40:07;;;;;;;;;;;18.90;43.80;;;;;;5083700;28;19968;-57
2024/01/09 05:42:34;;;;;;;;;;;18.90;43.80;;;;;;5091869;28;19924;-56
2024/01/09 05:45:00;;;;;;;;;;;18.90;43.80;;;;;;5081428;28;19920;-57
2024/01/09 05:47:27;;;;;;;;;;;18.90;43.80;;;;;;5087237;28;19928;-57
2024/01/09 05:49:54;;;;;;;;;;;18.90;43.70;;;;;;5085010;28;19977;-57
2024/01/09 05:52:20;;;;;;;;;;;18.90;43.70;;;;;;5093743;28;19927;-57
2024/01/09 05:54:47;;;;;;;;;;;18.90;43.70;;;;;;5084682;28;20349;-57
2024/01/09 05:57:15;;;;;;;;;;;18.90;43.70;;;;;;5082863;28;19951;-57
2024/01/09 05:59:42;;;;;;;;;;;18.90;43.70;;;;;;5079904;28;19927;-57
2024/01/09 06:02:09;;;;;;;;;;;18.90;43.70;;;;;;5079287;28;19920;-57
2024/01/09 06:04:36;;;;;;;;;;;18.90;43.70;;;;;;5092861;28;19920;-56
2024/01/09 06:07:02;;;;;;;;;;;18.90;43.70;;;;;;5091022;28;19927;-57
2024/01/09 06:09:29;;;;;;;;;;;18.90;43.70;;;;;;5093549;28;19924;-57
2024/01/09 06:11:56;;;;;;;;;;;18.90;43.70;;;;;;5082858;28;19959;-57
2024/01/09 06:14:24;;;;;;;;;;;18.90;43.70;;;;;;5075629;28;19969;-57
2024/01/09 06:16:51;;;;;;;;;;;18.90;43.70;;;;;;5079637;28;19920;-57
2024/01/09 06:19:18;;;;;;;;;;;18.90;43.70;;;;;;5080467;28;19927;-57
2024/01/09 06:21:45;;;;;;;;;;;18.90;43.70;;;;;;5076620;28;19924;-57
2024/01/09 06:24:11;;;;;;;;;;;18.90;43.70;;;;;;5087515;28;19990;-56
2024/01/09 06:26:38;;;;;;;;;;;18.90;43.80;;;;;;5073366;28;19924;-55
2024/01/09 06:29:05;;;;;;;;;;;18.90;43.80;;;;;;5092135;28;19931;-57
2024/01/09 06:31:33;;;;;;;;;;;18.90;44.40;;;;;;5073960;28;19920;-56
2024/01/09 06:34:00;;;;;;;;;;;18.90;43.80;;;;;;5093045;28;19924;-56
2024/01/09 06:36:27;;;;;;;;;;;18.90;43.80;;;;;;5091966;28;19920;-57
2024/01/09 06:38:54;;;;;;;;;;;18.90;43.80;;;;;;5075029;28;19981;-56
2024/01/09 06:41:20;;;;;;;;;;;18.90;43.80;;;;;;5077353;28;19937;-57
2024/01/09 06:43:47;;;;;;;;;;;18.90;43.80;;;;;;5073038;28;19920;-54
2024/01/09 06:46:14;;;;;;;;;;;18.90;43.80;;;;;;5072058;28;19920;-55
2024/01/09 06:48:42;;;;;;;;;;;18.90;43.90;;;;;;5072308;28;19928;-55
2024/01/09 06:51:08;;;;;;;;;;;18.90;43.90;;;;;;5091567;28;19932;-58
2024/01/09 06:53:35;;;;;;;;;;;18.90;44.00;;;;;;5086345;28;19928;-57
2024/01/09 06:56:02;;;;;;;;;;;18.90;44.00;;;;;;5074266;28;19924;-56
2024/01/09 06:58:28;;;;;;;;;;;18.90;44.00;;;;;;5074495;28;19973;-56
2024/01/09 07:00:55;;;;;;;;;;;18.90;44.00;;;;;;5074039;28;19928;-57
2024/01/09 07:03:22;;;;;;;;;;;18.90;44.00;;;;;;5085456;28;19973;-54
2024/01/09 07:05:50;;;;;;;;;;;18.90;44.00;;;;;;5072427;28;19924;-54
2024/01/09 07:08:17;;;;;;;;;;;18.90;43.90;;;;;;5069918;28;19924;-56
2024/01/09 07:10:43;;;;;;;;;;;18.90;43.90;;;;;;5078012;28;20024;-57
2024/01/09 07:13:10;;;;;;;;;;;18.90;44.40;;;;;;5079987;28;19951;-54
2024/01/09 07:15:37;;;;;;;;;;;18.90;43.90;;;;;;5091349;28;19931;-57
2024/01/09 07:18:04;;;;;;;;;;;18.90;43.80;;;;;;5066345;28;20058;-57
2024/01/09 07:20:31;;;;;;;;;;;18.90;43.70;;;;;;5072519;28;20331;-56
2024/01/09 07:22:59;;;;;;;;;;;18.90;43.70;;;;;;5090830;28;19985;-55
2024/01/09 07:25:25;;;;;;;;;;;18.90;44.20;;;;;;5090207;28;20048;-56
2024/01/09 07:27:52;;;;;;;;;;;18.80;43.50;;;;;;5071954;28;19946;-56
2024/01/09 07:30:19;;;;;;;;;;;18.90;43.50;;;;;;5074535;28;19947;-48
2024/01/09 07:32:46;;;;;;;;;;;18.80;43.40;;;;;;5071670;28;19931;-51
2024/01/09 07:35:12;;;;;;;;;;;18.80;42.50;;;;;;5075204;28;19931;-49
2024/01/09 07:37:39;;;;;;;;;;;18.80;41.30;;;;;;5076496;28;20208;-47
2024/01/09 07:40:08;;;;;;;;;;;18.80;39.80;;;;;;5073236;28;19954;-57
2024/01/09 07:42:35;;;;;;;;;;;18.70;39.10;;;;;;5091445;28;19928;-52
2024/01/09 07:45:02;;;;;;;;;;;18.70;39.50;;;;;;5070202;28;19974;-56
2024/01/09 07:47:29;;;;;;;;;;;18.70;39.70;;;;;;5082442;28;19927;-52
2024/01/09 07:49:56;;;;;;;;;;;18.70;40.00;;;;;;5079297;28;20378;-52
2024/01/09 07:52:22;;;;;;;;;;;18.70;40.20;;;;;;5077344;28;19931;-53
2024/01/09 07:54:49;;;;;;;;;;;18.70;40.40;;;;;;5080782;28;19920;-54
2024/01/09 07:57:17;;;;;;;;;;;18.60;40.60;;;;;;5090408;28;19977;-55
2024/01/09 07:59:44;;;;;;;;;;;18.60;40.70;;;;;;5090551;28;19928;-57
2024/01/09 08:02:11;;;;;;;;;;;18.70;41.00;;;;;;5090283;28;19931;-52
2024/01/09 08:04:39;;;;;;;;;;;18.70;41.20;;;;;;5077787;28;19970;-57
2024/01/09 08:07:06;;;;;;;;;;;18.60;41.20;;;;;;5077944;28;19966;-53
2024/01/09 08:09:32;;;;;;;;;;;18.70;41.40;;;;;;5079626;28;19924;-55
2024/01/09 08:12:00;;;;;;;;;;;18.70;41.50;;;;;;5078188;28;19987;-54
2024/01/09 08:14:28;;;;;;;;;;;18.70;41.70;;;;;;5079059;28;19933;-54
2024/01/09 08:16:55;;;;;;;;;;;18.70;41.80;;;;;;5079377;28;19982;-53
2024/01/09 08:19:22;;;;;;;;;;;18.70;42.40;;;;;;5089648;28;19926;-51
2024/01/09 08:21:49;;;;;;;;;;;18.70;41.90;;;;;;5090191;28;19969;-57
2024/01/09 08:24:18;;;;;;;;;;;18.80;42.00;;;;;;5077703;28;19985;-57
2024/01/09 08:26:47;;;;;;;;;;;18.80;42.10;;;;;;5080493;28;19931;-53
2024/01/09 08:29:14;;;;;;;;;;;18.80;42.10;;;;;;5090234;28;19927;-56
2024/01/09 08:31:45;;;;;;;;;;;18.80;42.20;;;;;;5089870;28;19927;-54
2024/01/09 08:34:11;;;;;;;;;;;18.80;42.20;;;;;;5086182;28;19920;-53
2024/01/09 08:36:38;;;;;;;;;;;18.80;42.30;;;;;;5098263;28;19946;-54
2024/01/09 08:39:05;;;;;;;;;;;18.80;42.30;;;;;;5096217;28;19920;-54
2024/01/09 08:41:31;;;;;;;;;;;18.80;42.40;;;;;;5097837;28;19992;-56
2024/01/09 08:43:58;;;;;;;;;;;18.90;42.50;;;;;;5086760;28;19920;-55
2024/01/09 08:46:25;;;;;;;;;;;18.90;42.60;;;;;;5081436;28;19973;-56
2024/01/09 08:48:53;;;;;;;;;;;18.90;42.60;;;;;;5096839;28;20005;-52
2024/01/09 08:51:20;;;;;;;;;;;18.90;42.60;;;;;;5080566;28;19923;-52
2024/01/09 08:53:46;;;;;;;;;;;18.90;42.70;;;;;;5082736;28;19923;-53
2024/01/09 08:56:13;;;;;;;;;;;18.90;42.70;;;;;;5095645;28;19973;-51
2024/01/09 08:58:40;;;;;;;;;;;18.90;42.70;;;;;;5083756;28;19943;-51
2024/01/09 09:01:07;;;;;;;;;;;18.90;42.80;;;;;;5078289;28;19924;-54
2024/01/09 09:03:34;;;;;;;;;;;18.90;42.80;;;;;;5081127;28;19926;-54
2024/01/09 09:06:02;;;;;;;;;;;18.90;42.80;;;;;;5078508;28;19973;-55
2024/01/09 09:08:30;;;;;;;;;;;19.00;42.90;;;;;;5081085;28;19970;-53
2024/01/09 09:10:57;;;;;;;;;;;19.00;42.90;;;;;;5080270;28;19931;-52
2024/01/09 09:13:24;;;;;;;;;;;19.00;42.90;;;;;;5097924;28;19970;-54
2024/01/09 09:15:51;;;;;;;;;;;19.00;42.90;;;;;;5078407;28;19923;-55
2024/01/09 09:18:17;;;;;;;;;;;19.00;43.00;;;;;;5097713;28;19924;-53
2024/01/09 09:20:44;;;;;;;;;;;19.00;43.00;;;;;;5076327;28;19927;-51
2024/01/09 09:23:12;;;;;;;;;;;19.00;43.00;;;;;;5078413;28;19927;-56
2024/01/09 09:25:39;;;;;;;;;;;19.00;43.00;;;;;;5076143;28;19969;-51
2024/01/09 09:28:06;;;;;;;;;;;19.00;43.10;;;;;;5077967;28;19969;-52
2024/01/09 09:30:33;;;;;;;;;;;19.00;43.10;;;;;;5094864;28;19920;-48
2024/01/09 09:32:59;;;;;;;;;;;19.00;43.10;;;;;;5079260;28;19973;-49
2024/01/09 09:35:26;;;;;;;;;;;19.00;43.10;;;;;;5098049;28;19981;-48
2024/01/09 09:37:53;;;;;;;;;;;19.00;43.10;;;;;;5096815;28;19927;-52
2024/01/09 09:40:22;;;;;;;;;;;19.00;43.10;;;;;;5097743;28;19919;-50
2024/01/09 09:42:49;;;;;;;;;;;19.00;43.10;;;;;;5095834;28;19920;-51
2024/01/09 09:45:15;;;;;;;;;;;19.00;43.20;;;;;;5097804;28;19924;-56
2024/01/09 09:47:42;;;;;;;;;;;19.00;43.20;;;;;;5091541;28;19920;-49
2024/01/09 09:50:09;;;;;;;;;;;19.00;43.20;;;;;;5094936;28;19983;-53
2024/01/09 09:52:36;;;;;;;;;;;19.00;43.20;;;;;;5075857;28;19920;-54
2024/01/09 09:55:03;;;;;;;;;;;19.10;43.30;;;;;;5092506;28;20365;-53
2024/01/09 09:57:32;;;;;;;;;;;19.00;43.20;;;;;;5077052;28;19943;-53
2024/01/09 09:59:59;;;;;;;;;;;19.00;43.20;;;;;;5094756;28;20014;-50
2024/01/09 10:02:26;;;;;;;;;;;19.00;43.20;;;;;;5096829;28;19920;-55
2024/01/09 10:04:52;;;;;;;;;;;19.10;43.30;;;;;;5096537;28;19923;-55
2024/01/09 10:07:20;;;;;;;;;;;19.00;43.30;;;;;;5095563;28;19923;-54
2024/01/09 10:09:49;;;;;;;;;;;19.10;43.40;;;;;;5097470;28;19920;-55
2024/01/09 10:12:15;;;;;;;;;;;19.10;43.40;;;;;;5077508;28;19926;-48
2024/01/09 10:14:57;;;;;;;;;;;19.10;43.50;;;;;;5079149;28;19946;-48
2024/01/09 10:17:25;;;;;;;;;;;19.10;43.40;;;;;;5094958;28;19920;-51
2024/01/09 10:19:52;;;;;;;;;;;19.10;43.40;;;;;;5084914;28;20249;-53
2024/01/09 10:22:18;;;;;;;;;;;19.10;43.50;;;;;;5076842;28;19965;-53
2024/01/09 10:24:45;;;;;;;;;;;19.10;43.50;;;;;;5076081;28;19942;-55
2024/01/09 10:27:12;;;;;;;;;;;19.10;43.50;;;;;;5076497;28;19942;-49
2024/01/09 10:29:39;;;;;;;;;;;19.10;43.50;;;;;;5075891;28;19928;-50
2024/01/09 10:32:06;;;;;;;;;;;19.10;43.50;;;;;;5080930;28;19920;-54
2024/01/09 10:34:34;;;;;;;;;;;19.10;43.50;;;;;;5078458;28;19949;-54
2024/01/09 10:37:06;;;;;;;;;;;19.10;43.50;;;;;;5095490;28;19920;-54
2024/01/09 10:39:33;;;;;;;;;;;19.20;43.60;;;;;;5078622;28;19920;-56
2024/01/09 10:42:04;;;;;;;;;;;19.10;43.50;;;;;;5077501;28;20272;-57
2024/01/09 10:44:31;;;;;;;;;;;19.20;43.60;;;;;;5095514;28;19920;-56
2024/01/09 10:46:58;;;;;;;;;;;19.20;43.60;;;;;;5093784;28;20026;-54
2024/01/09 10:49:24;;;;;;;;;;;19.20;43.60;;;;;;5078543;28;19920;-54
2024/01/09 10:51:52;;;;;;;;;;;19.20;43.70;;;;;;5094102;28;19936;-49
2024/01/09 10:54:19;;;;;;;;;;;19.20;43.70;;;;;;5092935;28;19920;-55
2024/01/09 10:56:46;;;;;;;;;;;19.20;43.70;;;;;;5083528;28;19920;-57
2024/01/09 10:59:13;;;;;;;;;;;19.20;43.70;;;;;;5082335;28;20364;-54
2024/01/09 11:01:40;;;;;;;;;;;19.20;43.70;;;;;;5092411;28;19920;-57
2024/01/09 11:04:07;;;;;;;;;;;19.20;43.70;;;;;;5078522;28;19927;-53
2024/01/09 11:06:34;;;;;;;;;;;19.20;43.70;;;;;;5094625;28;19920;-54
2024/01/09 11:09:04;;;;;;;;;;;19.20;43.70;;;;;;5095752;28;20323;-51
2024/01/09 11:11:31;;;;;;;;;;;19.20;43.70;;;;;;5078156;28;19920;-53
2024/01/09 11:14:00;;;;;;;;;;;19.20;43.80;;;;;;5075351;28;19973;-55
2024/01/09 11:16:26;;;;;;;;;;;19.20;43.80;;;;;;5075662;28;19996;-54
2024/01/09 11:18:53;;;;;;;;;;;19.20;43.80;;;;;;5093559;28;19920;-52
2024/01/09 11:21:24;;;;;;;;;;;19.20;43.80;;;;;;5078170;28;19924;-53
2024/01/09 11:23:54;;;;;;;;;;;19.20;43.80;;;;;;5090720;28;19977;-54
2024/01/09 11:26:23;;;;;;;;;;;19.20;43.80;;;;;;5074743;28;19920;-52
2024/01/09 11:28:50;;;;;;;;;;;19.20;43.80;;;;;;5081032;28;19923;-56
2024/01/09 11:31:20;;;;;;;;;;;19.20;43.80;;;;;;5076494;28;19942;-53
2024/01/09 11:33:47;;;;;;;;;;;19.30;43.90;;;;;;5094289;28;20002;-55
2024/01/09 11:36:14;;;;;;;;;;;19.30;43.80;;;;;;5077665;28;19973;-57
2024/01/09 11:38:41;;;;;;;;;;;19.30;43.90;;;;;;5090481;28;19920;-55
2024/01/09 11:41:10;;;;;;;;;;;19.30;43.90;;;;;;5094852;28;20191;-56
2024/01/09 11:43:55;;;;;;;;;;;19.30;43.90;;;;;;5093851;28;19951;-54
2024/01/09 11:46:24;;;;;;;;;;;19.30;43.90;;;;;;5077795;28;19967;-54
2024/01/09 11:48:51;;;;;;;;;;;19.30;43.90;;;;;;5075588;28;19927;-56
2024/01/09 11:51:18;;;;;;;;;;;19.30;43.90;;;;;;5095398;28;19973;-55
2024/01/09 11:53:45;;;;;;;;;;;19.20;43.80;;;;;;5074589;28;20015;-56
2024/01/09 11:56:13;;;;;;;;;;;19.20;43.80;;;;;;5067042;28;19920;-52
2024/01/09 11:58:40;;;;;;;;;;;19.30;43.90;;;;;;5079504;28;19926;-56
2024/01/09 12:01:06;;;;;;;;;;;19.30;44.00;;;;;;5074645;28;19978;-55
2024/01/09 12:03:34;;;;;;;;;;;19.20;43.80;;;;;;5081906;28;19919;-55
2024/01/09 12:06:02;;;;;;;;;;;19.20;43.80;;;;;;5073823;28;19973;-55
2024/01/09 12:08:29;;;;;;;;;;;19.30;44.00;;;;;;5095157;28;19927;-55
2024/01/09 12:10:56;;;;;;;;;;;19.20;43.90;;;;;;5075873;28;19924;-55
2024/01/09 12:13:23;;;;;;;;;;;19.20;43.80;;;;;;5094930;28;19920;-55
2024/01/09 12:15:49;;;;;;;;;;;19.20;43.80;;;;;;5075560;28;20361;-53
2024/01/09 12:18:16;;;;;;;;;;;19.20;43.80;;;;;;5076935;28;19997;-57
2024/01/09 12:20:44;;;;;;;;;;;19.30;43.90;;;;;;5091608;28;20279;-55
2024/01/09 12:23:11;;;;;;;;;;;19.30;44.00;;;;;;5074605;28;19943;-55
2024/01/09 12:25:38;;;;;;;;;;;19.20;43.90;;;;;;5080379;28;19990;-58
2024/01/09 12:28:05;;;;;;;;;;;19.20;43.90;;;;;;5092366;28;19928;-55
2024/01/09 12:30:32;;;;;;;;;;;19.30;44.10;;;;;;5092348;28;20034;-54
2024/01/09 12:32:59;;;;;;;;;;;19.30;44.10;;;;;;5066350;28;20039;-55
2024/01/09 12:35:26;;;;;;;;;;;19.30;44.00;;;;;;5074661;28;19957;-52
2024/01/09 12:37:54;;;;;;;;;;;19.30;44.00;;;;;;5092738;28;19924;-50
2024/01/09 12:40:22;;;;;;;;;;;19.30;44.10;;;;;;5076707;28;19920;-52
2024/01/09 12:43:03;;;;;;;;;;;19.30;44.10;;;;;;5092819;28;19920;-53
2024/01/09 12:45:30;;;;;;;;;;;19.30;44.10;;;;;;5076515;28;19961;-52
2024/01/09 12:47:57;;;;;;;;;;;19.30;44.20;;;;;;5074444;28;19977;-53
2024/01/09 12:50:27;;;;;;;;;;;19.40;44.30;;;;;;5076914;28;19921;-56
2024/01/09 12:52:55;;;;;;;;;;;19.30;44.20;;;;;;5091014;28;19928;-57
2024/01/09 12:55:22;;;;;;;;;;;19.30;44.80;;;;;;5076658;28;19977;-57
2024/01/09 12:57:48;;;;;;;;;;;19.30;44.20;;;;;;5064292;28;19925;-55
2024/01/09 13:00:16;;;;;;;;;;;19.40;44.30;;;;;;5067012;28;19927;-55
2024/01/09 13:02:43;;;;;;;;;;;19.40;44.40;;;;;;5070732;28;19974;-55
2024/01/09 13:05:09;;;;;;;;;;;19.30;44.30;;;;;;5085972;28;19931;-54
2024/01/09 13:07:36;;;;;;;;;;;19.40;44.40;;;;;;5087561;28;19920;-54
2024/01/09 13:10:05;;;;;;;;;;;19.40;44.40;;;;;;5076773;28;19967;-56
2024/01/09 13:12:32;;;;;;;;;;;19.40;44.40;;;;;;5075131;28;19920;-53
2024/01/09 13:14:59;;;;;;;;;;;19.40;44.50;;;;;;5094425;28;19920;-48
2024/01/09 13:17:26;;;;;;;;;;;19.30;44.40;;;;;;5092896;28;19942;-52
2024/01/09 13:19:54;;;;;;;;;;;19.40;44.50;;;;;;5079794;28;19920;-52
2024/01/09 13:22:21;;;;;;;;;;;19.40;44.50;;;;;;5058879;28;19920;-56
2024/01/09 13:24:48;;;;;;;;;;;19.40;44.50;;;;;;5077632;28;19943;-54
2024/01/09 13:27:16;;;;;;;;;;;19.40;44.50;;;;;;5064374;28;19959;-54
2024/01/09 13:29:43;;;;;;;;;;;19.40;44.50;;;;;;5094243;28;19927;-55
2024/01/09 13:32:10;;;;;;;;;;;19.40;44.50;;;;;;5077191;28;19927;-54
2024/01/09 13:34:37;;;;;;;;;;;19.40;44.50;;;;;;5094159;28;19939;-54
2024/01/09 13:37:04;;;;;;;;;;;19.40;44.60;;;;;;5067478;28;19931;-49
2024/01/09 13:39:31;;;;;;;;;;;19.40;44.50;;;;;;5070964;28;19920;-56
2024/01/09 13:41:58;;;;;;;;;;;19.40;44.60;;;;;;5078439;28;19927;-51
2024/01/09 13:44:26;;;;;;;;;;;19.40;44.60;;;;;;5078022;28;20026;-50
2024/01/09 13:46:55;;;;;;;;;;;19.40;44.60;;;;;;5098044;28;19927;-53
2024/01/09 13:49:22;;;;;;;;;;;19.40;44.60;;;;;;5071264;28;19978;-54
2024/01/09 13:51:51;;;;;;;;;;;19.40;44.60;;;;;;5059403;28;19920;-54
2024/01/09 13:54:17;;;;;;;;;;;19.40;44.60;;;;;;5077519;28;19921;-54
2024/01/09 13:56:44;;;;;;;;;;;19.40;44.60;;;;;;5060255;28;19920;-53
2024/01/09 13:59:11;;;;;;;;;;;19.40;44.60;;;;;;5063281;28;19921;-54
2024/01/09 14:01:39;;;;;;;;;;;19.30;44.50;;;;;;5076088;28;19920;-54
2024/01/09 14:04:11;;;;;;;;;;;19.40;44.60;;;;;;5097275;28;19919;-53
2024/01/09 14:06:38;;;;;;;;;;;19.40;44.60;;;;;;5096694;28;19923;-55
2024/01/09 14:09:05;;;;;;;;;;;19.40;44.60;;;;;;5096018;28;19920;-53
2024/01/09 14:11:32;;;;;;;;;;;19.40;44.60;;;;;;5096449;28;19920;-54
2024/01/09 14:13:59;;;;;;;;;;;19.40;44.60;;;;;;5097172;28;19920;-54
2024/01/09 14:16:26;;;;;;;;;;;19.40;44.60;;;;;;5096061;28;20019;-54